Time;durP1;ratioP1;P1;durP2;ratioP2;P2;SDS_P1;SDS_P2;PMS_P1;PMS_P2;Temp;Humidity;BMP_temperature;BMP_pressure;BME280_temperature;BME280_humidity;BME280_pressure;Samples;Min_cycle;Max_cycle;Signal;HPM_P1;HPM_P2
2023/06/24 00:02:02;;;;;;;14.90;7.20;;;;;;;;;;5107441;27;20701;-60
2023/06/24 00:04:30;;;;;;;12.13;6.95;;;;;;;;;;5101375;27;20039;-60
2023/06/24 00:07:04;;;;;;;12.73;7.20;;;;;;;;;;5102149;27;20051;-61
2023/06/24 00:09:32;;;;;;;15.45;7.07;;;;;;;;;;5117958;27;20503;-61
2023/06/24 00:12:00;;;;;;;11.60;6.77;;;;;;;;;;5106533;27;20092;-60
2023/06/24 00:14:29;;;;;;;12.32;6.53;;;;;;;;;;5104614;27;20039;-60
2023/06/24 00:16:57;;;;;;;11.73;6.10;;;;;;;;;;5108447;27;20038;-60
2023/06/24 00:19:25;;;;;;;12.07;6.45;;;;;;;;;;5123007;27;20031;-60
2023/06/24 00:21:54;;;;;;;12.98;6.80;;;;;;;;;;5104021;27;20046;-61
2023/06/24 00:24:25;;;;;;;12.60;6.47;;;;;;;;;;5119104;27;20049;-60
2023/06/24 00:26:53;;;;;;;13.07;6.65;;;;;;;;;;5114185;27;20117;-61
2023/06/24 00:29:21;;;;;;;12.30;6.35;;;;;;;;;;5118407;27;20118;-60
2023/06/24 00:31:50;;;;;;;13.32;7.03;;;;;;;;;;5106066;27;20041;-61
2023/06/24 00:34:19;;;;;;;14.32;7.03;;;;;;;;;;5127379;27;20130;-60
2023/06/24 00:36:47;;;;;;;13.90;6.80;;;;;;;;;;5103190;27;20722;-60
2023/06/24 00:39:15;;;;;;;14.07;7.20;;;;;;;;;;5115445;27;20519;-60
2023/06/24 00:41:43;;;;;;;14.55;7.57;;;;;;;;;;5098355;27;20043;-58
2023/06/24 00:44:12;;;;;;;12.10;6.63;;;;;;;;;;5114005;27;20035;-60
2023/06/24 00:46:40;;;;;;;11.52;6.70;;;;;;;;;;5109640;27;20038;-61
2023/06/24 00:49:09;;;;;;;14.23;7.20;;;;;;;;;;5121989;27;20031;-60
2023/06/24 00:51:40;;;;;;;17.73;7.88;;;;;;;;;;5120392;27;20656;-60
2023/06/24 00:54:08;;;;;;;11.77;7.20;;;;;;;;;;5115713;27;20095;-60
2023/06/24 00:56:38;;;;;;;12.77;7.30;;;;;;;;;;5120343;27;20041;-60
2023/06/24 00:59:09;;;;;;;12.60;7.18;;;;;;;;;;5108601;27;20485;-61
2023/06/24 01:01:37;;;;;;;15.17;7.07;;;;;;;;;;5119491;27;20034;-61
2023/06/24 01:04:05;;;;;;;10.30;6.40;;;;;;;;;;5092268;27;22399;-60
2023/06/24 01:06:36;;;;;;;12.93;6.85;;;;;;;;;;5124089;27;20191;-59
2023/06/24 01:09:05;;;;;;;13.00;5.80;;;;;;;;;;5104235;27;20042;-60
2023/06/24 01:11:32;;;;;;;11.73;5.88;;;;;;;;;;5103662;27;20051;-63
2023/06/24 01:14:00;;;;;;;14.30;6.47;;;;;;;;;;5102933;27;20435;-61
2023/06/24 01:16:38;;;;;;;12.25;6.13;;;;;;;;;;5121461;27;20546;-60
2023/06/24 01:19:13;;;;;;;14.13;6.80;;;;;;;;;;5121481;27;20046;-61
2023/06/24 01:21:49;;;;;;;14.93;7.13;;;;;;;;;;5112829;27;20049;-63
2023/06/24 01:24:32;;;;;;;13.25;6.60;;;;;;;;;;5116890;27;20058;-60
2023/06/24 01:27:19;;;;;;;15.77;6.83;;;;;;;;;;5111820;27;20473;-60
2023/06/24 01:29:54;;;;;;;15.27;6.72;;;;;;;;;;5113207;27;20058;-60
2023/06/24 01:32:28;;;;;;;12.60;6.70;;;;;;;;;;5100163;27;20050;-61
2023/06/24 01:34:58;;;;;;;12.13;6.80;;;;;;;;;;5095413;27;20038;-61
2023/06/24 01:37:29;;;;;;;10.63;6.10;;;;;;;;;;5107863;27;20412;-61
2023/06/24 01:40:08;;;;;;;12.47;6.30;;;;;;;;;;5114249;27;20050;-61
2023/06/24 01:42:37;;;;;;;13.70;6.43;;;;;;;;;;5118254;27;20035;-61
2023/06/24 01:45:10;;;;;;;14.88;6.70;;;;;;;;;;5103795;27;20370;-61
2023/06/24 01:47:43;;;;;;;13.52;6.60;;;;;;;;;;5116242;27;20556;-61
2023/06/24 01:50:12;;;;;;;11.38;5.88;;;;;;;;;;5077162;27;20038;-60
2023/06/24 01:52:43;;;;;;;11.87;5.47;;;;;;;;;;5130321;27;20038;-61
2023/06/24 01:55:12;;;;;;;12.30;6.20;;;;;;;;;;5113337;27;20046;-60
2023/06/24 01:57:40;;;;;;;17.23;6.55;;;;;;;;;;5102233;27;20038;-61
2023/06/24 02:00:10;;;;;;;13.48;6.53;;;;;;;;;;5108569;27;20043;-61
2023/06/24 02:02:39;;;;;;;13.45;6.38;;;;;;;;;;5105973;27;20035;-60
2023/06/24 02:05:09;;;;;;;15.73;6.60;;;;;;;;;;5116199;27;20038;-61
2023/06/24 02:07:38;;;;;;;11.27;5.45;;;;;;;;;;5120902;27;20098;-61
2023/06/24 02:10:06;;;;;;;15.20;6.97;;;;;;;;;;5113797;27;20622;-61
2023/06/24 02:12:34;;;;;;;15.32;7.15;;;;;;;;;;5113678;27;20039;-60
2023/06/24 02:15:04;;;;;;;12.85;7.07;;;;;;;;;;5100386;27;20043;-61
2023/06/24 02:17:32;;;;;;;12.73;6.20;;;;;;;;;;5108882;27;20640;-60
2023/06/24 02:20:00;;;;;;;12.50;6.60;;;;;;;;;;5105506;27;20049;-61
2023/06/24 02:22:29;;;;;;;16.23;7.05;;;;;;;;;;5117347;27;20404;-60
2023/06/24 02:24:57;;;;;;;11.93;6.70;;;;;;;;;;5109014;27;20484;-61
2023/06/24 02:27:25;;;;;;;13.02;6.72;;;;;;;;;;5105634;27;20497;-60
2023/06/24 02:29:53;;;;;;;11.87;7.03;;;;;;;;;;5100498;27;20518;-61
2023/06/24 02:32:21;;;;;;;15.23;6.63;;;;;;;;;;5084088;27;20392;-60
2023/06/24 02:34:52;;;;;;;13.40;6.70;;;;;;;;;;5127274;27;20043;-61
2023/06/24 02:37:20;;;;;;;11.50;6.40;;;;;;;;;;5122369;27;20047;-61
2023/06/24 02:39:49;;;;;;;11.93;6.47;;;;;;;;;;5115961;27;20137;-61
2023/06/24 02:42:17;;;;;;;14.50;6.77;;;;;;;;;;5110908;27;20461;-62
2023/06/24 02:44:45;;;;;;;11.88;6.13;;;;;;;;;;5103922;27;20050;-61
2023/06/24 02:47:13;;;;;;;13.38;6.68;;;;;;;;;;5083652;27;20042;-61
2023/06/24 02:49:43;;;;;;;12.10;6.75;;;;;;;;;;5127162;27;20064;-61
2023/06/24 02:52:11;;;;;;;14.68;6.70;;;;;;;;;;5109694;27;20054;-61
2023/06/24 02:54:39;;;;;;;13.73;7.17;;;;;;;;;;5117503;27;20043;-60
2023/06/24 02:57:09;;;;;;;10.27;6.07;;;;;;;;;;5120491;27;20070;-60
2023/06/24 02:59:37;;;;;;;12.77;6.80;;;;;;;;;;5123623;27;20046;-61
2023/06/24 03:02:05;;;;;;;12.05;5.82;;;;;;;;;;5117210;27;20058;-61
2023/06/24 03:04:34;;;;;;;14.20;6.90;;;;;;;;;;5115634;27;20099;-60
2023/06/24 03:07:02;;;;;;;13.70;6.70;;;;;;;;;;5098373;27;20106;-61
2023/06/24 03:09:33;;;;;;;11.80;6.60;;;;;;;;;;5102889;27;20041;-61
2023/06/24 03:12:00;;;;;;;12.73;6.10;;;;;;;;;;5099615;27;20509;-60
2023/06/24 03:14:29;;;;;;;13.13;7.20;;;;;;;;;;5119836;27;22812;-60
2023/06/24 03:16:58;;;;;;;12.85;6.43;;;;;;;;;;5108823;27;20779;-61
2023/06/24 03:19:25;;;;;;;14.63;7.13;;;;;;;;;;5123344;27;20046;-61
2023/06/24 03:21:53;;;;;;;12.65;6.85;;;;;;;;;;5117120;27;20030;-60
2023/06/24 03:24:21;;;;;;;12.25;6.60;;;;;;;;;;5101847;27;20734;-61
2023/06/24 03:26:56;;;;;;;14.23;6.88;;;;;;;;;;5117066;27;20042;-62
2023/06/24 03:29:24;;;;;;;12.18;6.50;;;;;;;;;;5111647;27;20129;-60
2023/06/24 03:31:53;;;;;;;14.97;6.67;;;;;;;;;;5092087;27;20038;-61
2023/06/24 03:34:22;;;;;;;13.98;6.72;;;;;;;;;;5111112;27;20039;-61
2023/06/24 03:36:51;;;;;;;15.43;6.53;;;;;;;;;;5105530;27;20039;-61
2023/06/24 03:39:18;;;;;;;12.30;6.30;;;;;;;;;;5110080;27;20047;-62
2023/06/24 03:41:46;;;;;;;13.57;7.03;;;;;;;;;;5115261;27;20088;-61
2023/06/24 03:44:14;;;;;;;11.70;6.70;;;;;;;;;;5101656;27;20039;-61
2023/06/24 03:46:41;;;;;;;11.50;6.60;;;;;;;;;;5120749;27;20035;-60
2023/06/24 03:49:11;;;;;;;14.38;7.00;;;;;;;;;;5089864;27;20045;-61
2023/06/24 03:51:38;;;;;;;13.05;6.80;;;;;;;;;;5113543;27;20050;-61
2023/06/24 03:54:06;;;;;;;12.73;7.10;;;;;;;;;;5107305;27;20732;-62
2023/06/24 03:56:34;;;;;;;12.67;7.00;;;;;;;;;;5114254;27;20221;-61
2023/06/24 03:59:02;;;;;;;11.40;6.47;;;;;;;;;;5108601;27;20028;-62
2023/06/24 04:01:33;;;;;;;14.13;6.60;;;;;;;;;;5096050;27;20404;-62
2023/06/24 04:04:00;;;;;;;10.77;5.88;;;;;;;;;;5104196;27;20092;-61
2023/06/24 04:06:30;;;;;;;12.23;6.10;;;;;;;;;;5088945;27;20043;-61
2023/06/24 04:08:58;;;;;;;11.87;6.20;;;;;;;;;;5114459;27;20035;-61
2023/06/24 04:11:26;;;;;;;15.05;6.22;;;;;;;;;;5108921;27;21933;-61
2023/06/24 04:13:55;;;;;;;13.68;6.72;;;;;;;;;;5105505;27;20589;-62
2023/06/24 04:16:23;;;;;;;15.93;7.15;;;;;;;;;;5129467;27;20039;-61
2023/06/24 04:18:50;;;;;;;11.68;6.07;;;;;;;;;;5116627;27;20066;-61
2023/06/24 04:21:18;;;;;;;10.90;6.43;;;;;;;;;;5126360;27;20050;-62
2023/06/24 04:23:47;;;;;;;16.65;6.82;;;;;;;;;;5105102;27;20039;-61
2023/06/24 04:26:15;;;;;;;11.75;7.03;;;;;;;;;;5117225;27;20050;-61
2023/06/24 04:28:43;;;;;;;13.50;7.15;;;;;;;;;;5120420;27;20039;-62
2023/06/24 04:31:12;;;;;;;13.55;7.15;;;;;;;;;;5110246;27;20099;-61
2023/06/24 04:33:40;;;;;;;13.87;6.77;;;;;;;;;;5118372;27;20042;-62
2023/06/24 04:36:08;;;;;;;15.38;6.78;;;;;;;;;;5104304;27;20039;-61
2023/06/24 04:38:35;;;;;;;14.80;6.63;;;;;;;;;;5123971;27;20043;-61
2023/06/24 04:41:04;;;;;;;13.55;6.97;;;;;;;;;;5115633;27;20373;-59
2023/06/24 04:43:32;;;;;;;12.00;6.43;;;;;;;;;;5117150;27;20043;-61
2023/06/24 04:46:00;;;;;;;11.20;6.03;;;;;;;;;;5110163;27;20045;-61
2023/06/24 04:48:28;;;;;;;11.68;6.50;;;;;;;;;;5124756;27;20492;-62
2023/06/24 04:50:57;;;;;;;12.45;6.85;;;;;;;;;;5102988;27;20745;-61
2023/06/24 04:53:25;;;;;;;11.52;6.97;;;;;;;;;;5102382;27;20047;-61
2023/06/24 04:55:53;;;;;;;13.38;6.55;;;;;;;;;;5114606;27;20031;-61
2023/06/24 04:58:22;;;;;;;13.57;6.87;;;;;;;;;;5113464;27;20049;-62
2023/06/24 05:00:50;;;;;;;12.70;6.65;;;;;;;;;;5112676;27;20134;-61
2023/06/24 05:03:17;;;;;;;13.57;6.18;;;;;;;;;;5109038;27;20032;-61
2023/06/24 05:05:48;;;;;;;13.07;6.82;;;;;;;;;;5116325;27;20424;-61
2023/06/24 05:08:17;;;;;;;18.70;7.18;;;;;;;;;;5120052;27;20071;-61
2023/06/24 05:10:45;;;;;;;15.30;6.40;;;;;;;;;;5120108;27;20041;-61
2023/06/24 05:13:13;;;;;;;12.98;6.68;;;;;;;;;;5126253;27;20125;-61
2023/06/24 05:15:42;;;;;;;13.40;6.15;;;;;;;;;;5105094;27;20037;-62
2023/06/24 05:18:10;;;;;;;13.05;6.38;;;;;;;;;;5111685;27;20043;-60
2023/06/24 05:20:38;;;;;;;12.13;6.60;;;;;;;;;;5110971;27;20053;-61
2023/06/24 05:23:08;;;;;;;12.33;6.90;;;;;;;;;;5117261;27;20028;-62
2023/06/24 05:25:36;;;;;;;12.48;6.57;;;;;;;;;;5117617;27;20320;-61
2023/06/24 05:28:04;;;;;;;12.95;5.95;;;;;;;;;;5099641;27;20401;-61
2023/06/24 05:30:32;;;;;;;14.88;5.93;;;;;;;;;;5115918;27;20035;-60
2023/06/24 05:33:01;;;;;;;12.50;6.68;;;;;;;;;;5117466;27;20046;-61
2023/06/24 05:35:29;;;;;;;10.80;6.23;;;;;;;;;;5115921;27;20039;-61
2023/06/24 05:37:56;;;;;;;14.60;7.38;;;;;;;;;;5103538;27;20039;-60
2023/06/24 05:40:24;;;;;;;14.15;7.15;;;;;;;;;;5112818;27;20089;-63
2023/06/24 05:42:52;;;;;;;10.65;6.50;;;;;;;;;;5115385;27;20572;-64
2023/06/24 05:45:20;;;;;;;11.82;6.38;;;;;;;;;;5109008;27;20545;-63
2023/06/24 05:47:48;;;;;;;14.97;6.67;;;;;;;;;;5117915;27;20066;-61
2023/06/24 05:50:18;;;;;;;12.02;6.18;;;;;;;;;;5119041;27;20062;-61
2023/06/24 05:52:46;;;;;;;12.80;6.13;;;;;;;;;;5105888;27;20031;-61
2023/06/24 05:55:13;;;;;;;13.82;6.40;;;;;;;;;;5122262;27;20512;-61
2023/06/24 05:57:45;;;;;;;14.20;6.28;;;;;;;;;;5107056;27;20039;-61
2023/06/24 06:00:13;;;;;;;11.47;6.60;;;;;;;;;;5107040;27;20054;-61
2023/06/24 06:02:41;;;;;;;14.93;6.47;;;;;;;;;;5116825;27;20523;-60
2023/06/24 06:05:09;;;;;;;14.43;6.55;;;;;;;;;;5116707;27;20066;-61
2023/06/24 06:07:39;;;;;;;12.00;5.88;;;;;;;;;;5107577;27;20134;-61
2023/06/24 06:10:07;;;;;;;14.05;5.75;;;;;;;;;;5106111;27;20128;-62
2023/06/24 06:12:35;;;;;;;12.00;7.00;;;;;;;;;;5104982;27;20663;-61
2023/06/24 06:15:03;;;;;;;10.75;6.53;;;;;;;;;;5125063;27;20047;-61
2023/06/24 06:17:31;;;;;;;10.68;5.65;;;;;;;;;;5096230;27;20039;-61
2023/06/24 06:19:58;;;;;;;12.10;5.40;;;;;;;;;;5118797;27;20053;-62
2023/06/24 06:22:26;;;;;;;12.80;5.47;;;;;;;;;;5119195;27;20386;-61
2023/06/24 06:24:55;;;;;;;11.27;5.67;;;;;;;;;;5084187;27;20043;-61
2023/06/24 06:27:23;;;;;;;11.82;5.50;;;;;;;;;;5123826;27;20492;-61
2023/06/24 06:29:51;;;;;;;11.38;6.13;;;;;;;;;;5111912;27;20477;-60
2023/06/24 06:32:18;;;;;;;8.57;5.10;;;;;;;;;;5112990;27;20035;-60
2023/06/24 06:34:46;;;;;;;13.18;6.13;;;;;;;;;;5099394;27;20039;-61
2023/06/24 06:37:14;;;;;;;10.40;5.77;;;;;;;;;;5118303;27;20057;-63
2023/06/24 06:39:42;;;;;;;10.88;4.78;;;;;;;;;;5103792;27;20062;-60
2023/06/24 06:42:11;;;;;;;14.90;5.30;;;;;;;;;;5124463;27;20035;-61
2023/06/24 06:44:39;;;;;;;13.10;6.07;;;;;;;;;;5106340;27;20054;-61
2023/06/24 06:47:07;;;;;;;10.23;5.78;;;;;;;;;;5115075;27;20035;-63
2023/06/24 06:49:35;;;;;;;10.13;5.10;;;;;;;;;;5097818;27;20030;-64
2023/06/24 06:52:03;;;;;;;11.43;6.15;;;;;;;;;;5130088;27;20046;-62
2023/06/24 06:54:31;;;;;;;9.65;4.70;;;;;;;;;;5085747;27;20050;-61
2023/06/24 06:57:01;;;;;;;10.27;5.60;;;;;;;;;;5092400;27;20039;-60
2023/06/24 06:59:30;;;;;;;10.38;5.20;;;;;;;;;;5084416;27;20469;-64
2023/06/24 07:01:58;;;;;;;9.33;5.07;;;;;;;;;;5092511;27;20032;-61
2023/06/24 07:04:26;;;;;;;12.15;5.68;;;;;;;;;;5087470;27;20040;-60
2023/06/24 07:06:54;;;;;;;13.13;5.60;;;;;;;;;;5095788;27;20043;-62
2023/06/24 07:09:21;;;;;;;9.45;5.30;;;;;;;;;;5090772;27;20460;-63
2023/06/24 07:11:49;;;;;;;10.05;5.10;;;;;;;;;;5094208;27;20039;-60
2023/06/24 07:14:17;;;;;;;10.50;5.10;;;;;;;;;;5086174;27;21665;-61
2023/06/24 07:16:46;;;;;;;10.10;4.70;;;;;;;;;;5097530;27;20733;-62
2023/06/24 07:19:14;;;;;;;10.77;5.30;;;;;;;;;;5084831;27;20631;-61
2023/06/24 07:21:41;;;;;;;11.77;5.38;;;;;;;;;;5084269;27;20462;-61
2023/06/24 07:24:09;;;;;;;10.85;4.85;;;;;;;;;;5087468;27;20031;-61
2023/06/24 07:26:37;;;;;;;12.37;5.00;;;;;;;;;;5091950;27;20593;-61
2023/06/24 07:29:06;;;;;;;14.15;5.90;;;;;;;;;;5090674;27;20046;-62
2023/06/24 07:31:38;;;;;;;11.30;5.22;;;;;;;;;;5094273;27;20050;-61
2023/06/24 07:34:07;;;;;;;12.48;5.75;;;;;;;;;;5098875;27;20084;-62
2023/06/24 07:36:35;;;;;;;12.70;5.28;;;;;;;;;;5091680;27;20043;-61
2023/06/24 07:39:03;;;;;;;9.70;5.73;;;;;;;;;;5094644;27;20054;-61
2023/06/24 07:41:31;;;;;;;11.40;5.97;;;;;;;;;;5090763;27;20497;-63
2023/06/24 07:43:58;;;;;;;9.85;5.80;;;;;;;;;;5088190;27;20035;-62
2023/06/24 07:46:26;;;;;;;11.60;4.95;;;;;;;;;;5081326;27;20212;-61
2023/06/24 07:48:55;;;;;;;11.38;5.57;;;;;;;;;;5083472;27;20627;-61
2023/06/24 07:51:24;;;;;;;11.33;6.33;;;;;;;;;;5095894;27;20494;-56
2023/06/24 07:53:52;;;;;;;9.68;5.35;;;;;;;;;;5077259;27;20247;-63
2023/06/24 07:56:20;;;;;;;9.70;5.93;;;;;;;;;;5101951;27;20126;-63
2023/06/24 07:58:47;;;;;;;10.50;5.30;;;;;;;;;;5110318;27;20039;-62
2023/06/24 08:01:15;;;;;;;10.55;5.30;;;;;;;;;;5111331;27;20458;-62
2023/06/24 08:03:43;;;;;;;12.73;5.57;;;;;;;;;;5115413;27;20092;-63
2023/06/24 08:06:12;;;;;;;10.07;4.50;;;;;;;;;;5112388;27;20035;-63
2023/06/24 08:08:41;;;;;;;11.13;5.35;;;;;;;;;;5099732;27;20366;-62
2023/06/24 08:11:08;;;;;;;9.25;4.45;;;;;;;;;;5108657;27;20038;-63
2023/06/24 08:13:37;;;;;;;10.23;4.85;;;;;;;;;;5098276;27;20039;-65
2023/06/24 08:16:07;;;;;;;8.80;4.00;;;;;;;;;;5109190;27;20028;-65
2023/06/24 08:18:34;;;;;;;10.05;5.15;;;;;;;;;;5101795;27;20159;-64
2023/06/24 08:21:02;;;;;;;12.32;5.13;;;;;;;;;;5109280;27;20050;-64
2023/06/24 08:23:29;;;;;;;10.77;4.60;;;;;;;;;;5105080;27;20030;-64
2023/06/24 08:25:59;;;;;;;8.55;4.47;;;;;;;;;;5115266;27;20036;-65
2023/06/24 08:28:42;;;;;;;8.87;4.20;;;;;;;;;;5101514;27;20049;-64
2023/06/24 08:31:12;;;;;;;10.23;4.75;;;;;;;;;;5114904;27;20046;-65
2023/06/24 08:33:43;;;;;;;8.55;3.75;;;;;;;;;;5088899;27;20561;-65
2023/06/24 08:36:11;;;;;;;8.90;4.45;;;;;;;;;;5107672;27;20058;-64
2023/06/24 08:38:38;;;;;;;9.95;4.85;;;;;;;;;;5111096;27;20031;-64
2023/06/24 08:41:08;;;;;;;10.17;5.37;;;;;;;;;;5104343;27;20122;-64
2023/06/24 08:43:35;;;;;;;8.95;4.45;;;;;;;;;;5109121;27;20042;-63
2023/06/24 08:46:03;;;;;;;12.13;4.93;;;;;;;;;;5098607;27;20040;-64
2023/06/24 08:48:31;;;;;;;11.20;6.10;;;;;;;;;;5114900;27;20779;-64
2023/06/24 08:51:00;;;;;;;8.35;4.80;;;;;;;;;;5110747;27;20495;-64
2023/06/24 08:53:28;;;;;;;10.87;4.60;;;;;;;;;;5109350;27;20147;-63
2023/06/24 08:55:57;;;;;;;9.70;4.93;;;;;;;;;;5118681;27;20038;-64
2023/06/24 08:58:26;;;;;;;8.10;4.43;;;;;;;;;;5115313;27;20058;-63
2023/06/24 09:00:54;;;;;;;11.40;4.60;;;;;;;;;;5116017;27;20046;-64
2023/06/24 09:03:30;;;;;;;19.02;5.47;;;;;;;;;;5115457;27;20487;-63
2023/06/24 09:05:58;;;;;;;7.23;4.27;;;;;;;;;;5101042;27;20047;-64
2023/06/24 09:08:26;;;;;;;9.75;4.90;;;;;;;;;;5128287;27;20035;-63
2023/06/24 09:10:55;;;;;;;11.05;4.95;;;;;;;;;;5101879;27;20477;-64
2023/06/24 09:13:28;;;;;;;10.57;4.13;;;;;;;;;;5117471;27;20087;-63
2023/06/24 09:15:58;;;;;;;11.60;4.40;;;;;;;;;;5115607;27;20034;-63
2023/06/24 09:18:32;;;;;;;8.47;4.37;;;;;;;;;;5104810;27;20522;-62
2023/06/24 09:21:02;;;;;;;9.63;4.18;;;;;;;;;;5115860;27;20117;-63
2023/06/24 09:23:29;;;;;;;9.85;4.53;;;;;;;;;;5101130;27;20263;-63
2023/06/24 09:25:58;;;;;;;7.65;3.88;;;;;;;;;;5115080;27;20042;-62
2023/06/24 09:28:28;;;;;;;7.30;3.97;;;;;;;;;;5109501;27;20042;-62
2023/06/24 09:31:06;;;;;;;7.43;3.83;;;;;;;;;;5109176;27;20041;-63
2023/06/24 09:33:46;;;;;;;7.18;4.05;;;;;;;;;;5117942;27;20035;-62
2023/06/24 09:36:15;;;;;;;7.35;4.38;;;;;;;;;;5103394;27;20535;-62
2023/06/24 09:38:44;;;;;;;8.25;4.05;;;;;;;;;;5106847;27;20423;-63
2023/06/24 09:41:12;;;;;;;11.00;4.18;;;;;;;;;;5109109;27;20471;-62
2023/06/24 09:43:44;;;;;;;10.03;4.10;;;;;;;;;;5096980;27;20446;-63
2023/06/24 09:46:12;;;;;;;7.43;4.28;;;;;;;;;;5085542;27;20450;-64
2023/06/24 09:48:40;;;;;;;7.72;3.95;;;;;;;;;;5118448;27;20038;-66
2023/06/24 09:51:09;;;;;;;8.52;3.83;;;;;;;;;;5112953;27;20042;-65
2023/06/24 09:53:37;;;;;;;8.40;4.38;;;;;;;;;;5103359;27;20120;-65
2023/06/24 09:56:07;;;;;;;7.83;4.07;;;;;;;;;;5117478;27;20119;-65
2023/06/24 09:58:36;;;;;;;10.02;4.00;;;;;;;;;;5113170;27;20039;-64
2023/06/24 10:01:05;;;;;;;8.93;4.68;;;;;;;;;;5104279;27;20146;-58
2023/06/24 10:03:34;;;;;;;8.77;4.28;;;;;;;;;;5114093;27;20129;-64
2023/06/24 10:06:02;;;;;;;11.30;4.28;;;;;;;;;;5096155;27;20400;-65
2023/06/24 10:08:31;;;;;;;7.40;3.97;;;;;;;;;;5129032;27;20114;-64
2023/06/24 10:10:59;;;;;;;10.50;4.20;;;;;;;;;;5098775;27;20724;-64
2023/06/24 10:13:27;;;;;;;9.55;3.55;;;;;;;;;;5127070;27;20042;-65
2023/06/24 10:15:55;;;;;;;7.65;4.00;;;;;;;;;;5097656;27;20034;-63
2023/06/24 10:18:37;;;;;;;8.18;4.32;;;;;;;;;;5120245;27;20038;-64
2023/06/24 10:21:05;;;;;;;6.13;3.37;;;;;;;;;;5127341;27;20041;-63
2023/06/24 10:23:40;;;;;;;8.50;3.97;;;;;;;;;;5112168;27;20533;-63
2023/06/24 10:26:09;;;;;;;7.82;3.55;;;;;;;;;;5122462;27;20170;-64
2023/06/24 10:28:55;;;;;;;8.30;3.97;;;;;;;;;;5118038;27;20488;-63
2023/06/24 10:31:48;;;;;;;6.82;3.50;;;;;;;;;;5105184;27;20049;-63
2023/06/24 10:34:26;;;;;;;9.63;4.57;;;;;;;;;;5111242;27;20412;-63
2023/06/24 10:36:55;;;;;;;9.02;3.95;;;;;;;;;;5126880;27;20476;-64
2023/06/24 10:39:41;;;;;;;9.60;3.83;;;;;;;;;;5111424;27;20441;-63
2023/06/24 10:42:30;;;;;;;7.63;4.30;;;;;;;;;;5120663;27;20042;-62
2023/06/24 10:44:58;;;;;;;7.50;4.03;;;;;;;;;;5120435;27;20043;-64
2023/06/24 10:47:26;;;;;;;8.83;4.70;;;;;;;;;;5108393;27;20041;-63
2023/06/24 10:49:55;;;;;;;7.53;4.43;;;;;;;;;;5113702;27;20508;-63
2023/06/24 10:52:23;;;;;;;8.45;4.25;;;;;;;;;;5094167;27;20305;-62
2023/06/24 10:54:52;;;;;;;9.35;3.90;;;;;;;;;;5120177;27;20046;-64
2023/06/24 10:57:24;;;;;;;7.78;4.75;;;;;;;;;;5111663;27;20475;-63
2023/06/24 10:59:52;;;;;;;8.93;4.67;;;;;;;;;;5111605;27;20054;-63
2023/06/24 11:02:20;;;;;;;8.75;4.18;;;;;;;;;;5092474;27;20043;-62
2023/06/24 11:04:49;;;;;;;6.40;3.50;;;;;;;;;;5087670;27;20126;-64
2023/06/24 11:07:19;;;;;;;8.15;4.50;;;;;;;;;;5100360;27;20050;-65
2023/06/24 11:09:51;;;;;;;6.60;3.45;;;;;;;;;;5118528;27;20116;-64
2023/06/24 11:12:19;;;;;;;6.57;4.03;;;;;;;;;;5100479;27;20039;-65
2023/06/24 11:14:46;;;;;;;8.57;3.90;;;;;;;;;;5120093;27;20043;-64
2023/06/24 11:17:14;;;;;;;7.65;3.97;;;;;;;;;;5087819;27;20042;-64
2023/06/24 11:19:43;;;;;;;6.93;3.90;;;;;;;;;;5112259;27;20039;-64
2023/06/24 11:22:12;;;;;;;8.18;4.38;;;;;;;;;;5100883;27;20509;-62
2023/06/24 11:24:42;;;;;;;8.80;4.10;;;;;;;;;;5121297;27;20515;-64
2023/06/24 11:27:09;;;;;;;5.97;2.60;;;;;;;;;;5120537;27;20039;-63
2023/06/24 11:29:37;;;;;;;6.63;3.10;;;;;;;;;;5106686;27;20043;-63
2023/06/24 11:32:08;;;;;;;8.02;3.67;;;;;;;;;;5119440;27;20066;-62
2023/06/24 11:34:36;;;;;;;6.20;3.60;;;;;;;;;;5100594;27;20570;-61
2023/06/24 11:37:11;;;;;;;7.53;3.80;;;;;;;;;;5116492;27;20855;-62
2023/06/24 11:39:39;;;;;;;8.30;3.83;;;;;;;;;;5121736;27;20416;-62
2023/06/24 11:42:09;;;;;;;6.95;3.00;;;;;;;;;;5108101;27;20125;-62
2023/06/24 11:44:37;;;;;;;7.00;3.10;;;;;;;;;;5083180;27;20046;-62
2023/06/24 11:47:05;;;;;;;5.50;2.50;;;;;;;;;;5107903;27;20130;-62
2023/06/24 11:49:48;;;;;;;6.83;3.33;;;;;;;;;;5112369;27;20095;-62
2023/06/24 11:52:16;;;;;;;6.28;3.10;;;;;;;;;;5105252;27;20070;-63
2023/06/24 11:54:44;;;;;;;7.22;2.70;;;;;;;;;;5118633;27;20051;-62
2023/06/24 11:57:13;;;;;;;9.35;3.13;;;;;;;;;;5123203;27;20039;-63
2023/06/24 11:59:43;;;;;;;5.97;2.92;;;;;;;;;;5104242;27;20847;-62
2023/06/24 12:02:14;;;;;;;6.57;3.17;;;;;;;;;;5130655;27;20045;-61
2023/06/24 12:04:44;;;;;;;6.63;3.42;;;;;;;;;;5109198;27;20046;-62
2023/06/24 12:07:12;;;;;;;5.90;2.20;;;;;;;;;;5119251;27;20045;-62
2023/06/24 12:09:40;;;;;;;7.95;2.80;;;;;;;;;;5104894;27;20027;-62
2023/06/24 12:12:08;;;;;;;16.60;2.67;;;;;;;;;;5097146;27;20098;-61
2023/06/24 12:14:37;;;;;;;7.80;3.00;;;;;;;;;;5098116;27;20638;-63
2023/06/24 12:17:09;;;;;;;8.40;2.78;;;;;;;;;;5097543;27;20038;-63
2023/06/24 12:19:37;;;;;;;6.72;2.97;;;;;;;;;;5130431;27;20495;-62
2023/06/24 12:22:05;;;;;;;6.55;2.53;;;;;;;;;;5120667;27;20050;-61
2023/06/24 12:24:33;;;;;;;7.35;3.10;;;;;;;;;;5125169;27;20046;-60
2023/06/24 12:27:01;;;;;;;6.30;3.10;;;;;;;;;;5100767;27;20047;-60
2023/06/24 12:29:28;;;;;;;5.93;2.25;;;;;;;;;;5109965;27;20043;-60
2023/06/24 12:32:05;;;;;;;6.03;2.33;;;;;;;;;;5104020;27;20031;-60
2023/06/24 12:34:33;;;;;;;9.77;2.97;;;;;;;;;;5109473;27;20070;-61
2023/06/24 12:37:00;;;;;;;9.52;2.60;;;;;;;;;;5116906;27;20038;-60
2023/06/24 12:39:28;;;;;;;9.37;2.80;;;;;;;;;;5102855;27;20042;-60
2023/06/24 12:41:56;;;;;;;12.55;3.00;;;;;;;;;;5119949;27;20058;-60
2023/06/24 12:44:24;;;;;;;14.30;3.00;;;;;;;;;;5093275;27;20542;-58
2023/06/24 12:46:52;;;;;;;6.53;2.47;;;;;;;;;;5118506;27;20042;-60
2023/06/24 12:49:22;;;;;;;8.50;3.10;;;;;;;;;;5113212;27;20066;-60
2023/06/24 12:51:49;;;;;;;7.17;3.17;;;;;;;;;;5093725;27;20034;-60
2023/06/24 12:54:17;;;;;;;9.02;3.08;;;;;;;;;;5098937;27;20050;-64
2023/06/24 12:56:45;;;;;;;8.32;2.92;;;;;;;;;;5114852;27;20043;-61
2023/06/24 12:59:12;;;;;;;18.65;4.70;;;;;;;;;;5111811;27;20035;-63
2023/06/24 13:01:44;;;;;;;15.05;3.40;;;;;;;;;;5078022;27;20060;-63
2023/06/24 13:04:12;;;;;;;9.67;3.13;;;;;;;;;;5103400;27;20035;-63
2023/06/24 13:06:41;;;;;;;8.43;3.17;;;;;;;;;;5114779;27;20449;-64
2023/06/24 13:09:09;;;;;;;14.70;3.10;;;;;;;;;;5099191;27;20138;-64
2023/06/24 13:11:38;;;;;;;6.32;2.22;;;;;;;;;;5128143;27;20066;-64
2023/06/24 13:14:06;;;;;;;6.22;3.25;;;;;;;;;;5106695;27;20118;-65
2023/06/24 13:16:34;;;;;;;8.03;2.30;;;;;;;;;;5110684;27;20039;-63
2023/06/24 13:19:02;;;;;;;10.55;2.63;;;;;;;;;;5114852;27;20039;-63
2023/06/24 13:21:33;;;;;;;8.13;2.70;;;;;;;;;;5106388;27;20035;-64
2023/06/24 13:24:03;;;;;;;5.80;2.45;;;;;;;;;;5108253;27;20035;-63
2023/06/24 13:26:31;;;;;;;7.88;2.20;;;;;;;;;;5094032;27;20039;-63
2023/06/24 13:28:58;;;;;;;5.70;2.70;;;;;;;;;;5124886;27;20396;-65
2023/06/24 13:31:26;;;;;;;7.93;2.80;;;;;;;;;;5086245;27;20034;-62
2023/06/24 13:33:54;;;;;;;8.15;2.92;;;;;;;;;;5119535;27;20512;-63
2023/06/24 13:36:29;;;;;;;8.13;2.20;;;;;;;;;;5077336;27;20523;-64
2023/06/24 13:38:57;;;;;;;6.35;3.30;;;;;;;;;;5121434;27;20407;-63
2023/06/24 13:41:29;;;;;;;6.13;3.13;;;;;;;;;;5102635;27;20042;-62
2023/06/24 13:43:58;;;;;;;7.45;3.20;;;;;;;;;;5117685;27;20052;-64
2023/06/24 13:46:26;;;;;;;10.63;3.13;;;;;;;;;;5104714;27;20519;-64
2023/06/24 13:48:54;;;;;;;7.10;2.80;;;;;;;;;;5118010;27;20043;-64
2023/06/24 13:51:22;;;;;;;8.02;3.28;;;;;;;;;;5080744;27;21006;-64
2023/06/24 13:53:50;;;;;;;5.77;3.03;;;;;;;;;;5120821;27;20072;-64
2023/06/24 13:56:20;;;;;;;7.03;2.72;;;;;;;;;;5112675;27;20036;-64
2023/06/24 13:58:54;;;;;;;5.68;2.63;;;;;;;;;;5111495;27;20074;-64
2023/06/24 14:01:23;;;;;;;8.23;2.67;;;;;;;;;;5095779;27;20050;-64
2023/06/24 14:03:52;;;;;;;5.35;2.33;;;;;;;;;;5113009;27;20836;-64
2023/06/24 14:06:21;;;;;;;6.63;3.07;;;;;;;;;;5104951;27;20058;-64
2023/06/24 14:08:48;;;;;;;6.22;2.47;;;;;;;;;;5121902;27;20058;-64
2023/06/24 14:11:16;;;;;;;6.32;2.28;;;;;;;;;;5098459;27;20421;-64
2023/06/24 14:13:45;;;;;;;5.38;2.60;;;;;;;;;;5107024;27;20034;-58
2023/06/24 14:16:14;;;;;;;5.53;2.47;;;;;;;;;;5110104;27;20057;-62
2023/06/24 14:18:42;;;;;;;6.33;2.10;;;;;;;;;;5092932;27;20039;-62
2023/06/24 14:21:10;;;;;;;4.75;2.28;;;;;;;;;;5128920;27;20088;-62
2023/06/24 14:23:40;;;;;;;7.80;2.65;;;;;;;;;;5111557;27;20432;-62
2023/06/24 14:26:07;;;;;;;7.13;2.65;;;;;;;;;;5113242;27;20062;-63
2023/06/24 14:28:39;;;;;;;7.05;1.80;;;;;;;;;;5110020;27;20564;-64
2023/06/24 14:31:07;;;;;;;6.17;2.90;;;;;;;;;;5119359;27;20035;-63
2023/06/24 14:33:36;;;;;;;5.68;2.75;;;;;;;;;;5092598;27;20489;-64
2023/06/24 14:36:04;;;;;;;6.78;3.28;;;;;;;;;;5117198;27;20053;-56
2023/06/24 14:38:32;;;;;;;5.25;2.28;;;;;;;;;;5114985;27;20042;-62
2023/06/24 14:40:59;;;;;;;6.40;3.20;;;;;;;;;;5111513;27;20031;-62
2023/06/24 14:43:27;;;;;;;4.77;2.00;;;;;;;;;;5117767;27;20039;-62
2023/06/24 14:45:55;;;;;;;5.18;2.47;;;;;;;;;;5110324;27;20058;-64
2023/06/24 14:48:22;;;;;;;7.57;3.30;;;;;;;;;;5088536;27;20445;-62